Time;durP1;ratioP1;P1;durP2;ratioP2;P2;SDS_P1;SDS_P2;PMS_P1;PMS_P2;Temp;Humidity;BMP_temperature;BMP_pressure;BME280_temperature;BME280_humidity;BME280_pressure;Samples;Min_cycle;Max_cycle;Signal;HPM_P1;HPM_P2
2023/04/23 00:06:22;;;;;;;1999.90;999.90;;;12.20;99.90;;;;;;6642335;89;20201;-80
2023/04/23 00:16:23;;;;;;;1999.90;999.90;;;12.00;99.90;;;;;;6638739;88;20180;-82
2023/04/23 00:26:24;;;;;;;1999.90;999.90;;;12.00;99.90;;;;;;6649698;88;20230;-80
2023/04/23 00:36:25;;;;;;;1999.90;999.90;;;11.90;99.90;;;;;;6640444;89;20629;-80
2023/04/23 00:46:25;;;;;;;1999.90;999.90;;;11.90;99.90;;;;;;6636919;89;20214;-79
2023/04/23 00:56:27;;;;;;;1999.90;999.90;;;11.80;99.90;;;;;;6640992;89;20571;-80
2023/04/23 01:06:28;;;;;;;1999.90;999.90;;;11.70;99.90;;;;;;6642673;89;21132;-80
2023/04/23 01:16:29;;;;;;;1999.90;999.90;;;11.70;99.90;;;;;;6647118;89;20326;-80
2023/04/23 01:26:31;;;;;;;1999.90;999.90;;;11.50;99.90;;;;;;6640826;89;20287;-80
2023/04/23 01:36:32;;;;;;;1999.90;999.90;;;11.60;99.90;;;;;;6640482;88;20224;-80
2023/04/23 01:46:33;;;;;;;1999.90;999.90;;;11.50;99.90;;;;;;6640671;89;20193;-80
2023/04/23 01:56:34;;;;;;;1999.90;999.90;;;11.40;99.90;;;;;;6640785;89;20631;-80
2023/04/23 02:06:35;;;;;;;1999.90;999.90;;;11.30;99.90;;;;;;6640051;89;20218;-79
2023/04/23 02:16:36;;;;;;;1999.90;999.90;;;11.30;99.90;;;;;;6639856;89;20188;-80
2023/04/23 02:26:36;;;;;;;1999.90;999.90;;;11.20;99.90;;;;;;6639710;89;20188;-80
2023/04/23 02:36:38;;;;;;;1999.90;999.90;;;11.00;99.90;;;;;;6639549;89;21018;-80
2023/04/23 02:46:38;;;;;;;1999.90;999.90;;;11.20;99.90;;;;;;6624744;89;20207;-79
2023/04/23 02:56:39;;;;;;;1999.90;999.90;;;11.20;99.90;;;;;;6651597;89;20235;-80
2023/04/23 03:06:40;;;;;;;1999.90;999.90;;;11.00;99.90;;;;;;6659085;89;20221;-81
2023/04/23 03:16:41;;;;;;;1999.90;999.90;;;11.00;99.90;;;;;;6651929;88;20215;-80
2023/04/23 03:26:41;;;;;;;1999.90;999.90;;;11.10;99.90;;;;;;6660194;88;20174;-80
2023/04/23 03:36:43;;;;;;;1999.90;999.90;;;11.10;99.90;;;;;;6650655;88;20186;-81
2023/04/23 03:46:44;;;;;;;1999.90;999.90;;;11.10;99.90;;;;;;6648433;88;20199;-81
2023/04/23 03:56:44;;;;;;;1999.90;999.90;;;11.20;99.90;;;;;;6712983;88;20223;-80
2023/04/23 04:06:45;;;;;;;1999.90;999.90;;;11.20;99.90;;;;;;6643779;89;20551;-80
2023/04/23 04:16:45;;;;;;;1999.90;999.90;;;11.30;99.90;;;;;;6680347;88;20573;-81
2023/04/23 04:26:46;;;;;;;1999.90;999.90;;;11.30;99.90;;;;;;6653603;89;20205;-81
2023/04/23 04:36:47;;;;;;;1999.90;999.90;;;11.40;99.90;;;;;;6654339;88;20166;-79
2023/04/23 04:46:47;;;;;;;1999.90;999.90;;;11.40;99.90;;;;;;6657760;88;20309;-79
2023/04/23 04:56:48;;;;;;;1999.90;999.90;;;11.50;99.90;;;;;;6666063;88;20285;-79
2023/04/23 05:06:48;;;;;;;1999.90;999.90;;;11.70;99.90;;;;;;6651377;88;20309;-78
2023/04/23 05:16:49;;;;;;;1999.90;999.90;;;11.90;99.90;;;;;;6657796;88;20490;-79
2023/04/23 05:26:49;;;;;;;1999.90;999.90;;;12.20;99.90;;;;;;6651050;88;20673;-78
2023/04/23 05:36:50;;;;;;;1999.90;999.90;;;12.30;99.90;;;;;;6650335;88;20211;-78
2023/04/23 05:46:50;;;;;;;1999.90;999.90;;;12.40;99.90;;;;;;6646787;88;20866;-78
2023/04/23 05:56:51;;;;;;;1999.90;999.90;;;12.50;99.90;;;;;;6654974;88;20223;-79
2023/04/23 06:06:52;;;;;;;1999.90;999.90;;;12.60;99.90;;;;;;6644689;89;20213;-80
2023/04/23 06:16:53;;;;;;;1999.90;999.90;;;12.70;99.90;;;;;;6650025;89;20300;-79
2023/04/23 06:26:53;;;;;;;1999.90;999.90;;;12.90;99.90;;;;;;6645246;89;20200;-80
2023/04/23 06:36:54;;;;;;;1999.90;999.90;;;13.10;99.90;;;;;;6651709;88;20158;-78
2023/04/23 06:46:55;;;;;;;1999.90;999.90;;;13.30;99.90;;;;;;6652674;88;20786;-82
2023/04/23 06:56:56;;;;;;;1999.90;999.90;;;13.30;99.90;;;;;;6653262;89;20217;-78
2023/04/23 07:06:56;;;;;;;1999.90;999.90;;;13.30;99.90;;;;;;6647071;89;20185;-79
2023/04/23 07:16:58;;;;;;;1999.90;999.90;;;13.40;99.90;;;;;;6647498;89;20679;-80
2023/04/23 07:26:58;;;;;;;1999.90;999.90;;;13.80;99.90;;;;;;6645816;89;20185;-80
2023/04/23 07:36:59;;;;;;;1999.90;999.90;;;14.40;99.90;;;;;;6654118;89;21235;-79
2023/04/23 07:46:59;;;;;;;1999.90;999.90;;;14.50;99.90;;;;;;6648983;89;20624;-79
2023/04/23 07:57:00;;;;;;;1999.90;999.90;;;14.50;99.90;;;;;;6648519;89;20219;-81
2023/04/23 08:07:00;;;;;;;1999.90;999.90;;;15.10;99.90;;;;;;6651485;88;20256;-81
2023/04/23 08:17:01;;;;;;;1999.90;999.90;;;16.40;99.90;;;;;;6674397;88;20275;-79
2023/04/23 08:27:01;;;;;;;1999.90;999.90;;;16.30;99.90;;;;;;6643498;89;20702;-80
2023/04/23 08:37:03;;;;;;;1999.90;999.90;;;17.40;99.90;;;;;;6636186;89;20186;-79
2023/04/23 08:47:05;;;;;;;1999.90;999.90;;;16.90;99.90;;;;;;6671180;88;20198;-80
2023/04/23 08:57:07;;;;;;;1999.90;999.90;;;17.50;99.90;;;;;;6646182;89;20229;-79
2023/04/23 09:07:10;;;;;;;1999.90;999.90;;;17.70;99.90;;;;;;6647709;88;20710;-80
2023/04/23 09:17:10;;;;;;;1999.90;999.90;;;18.10;99.90;;;;;;6642659;89;20745;-81
2023/04/23 09:27:11;;;;;;;1999.90;999.90;;;18.50;99.90;;;;;;6649554;89;20276;-81
2023/04/23 09:37:12;;;;;;;1999.90;999.90;;;18.30;99.90;;;;;;6650568;88;20193;-81
2023/04/23 09:47:14;;;;;;;1999.90;999.90;;;18.20;99.90;;;;;;6649502;88;20733;-80
2023/04/23 09:57:15;;;;;;;1999.90;999.90;;;18.90;99.90;;;;;;6648986;89;20508;-79
2023/04/23 10:07:16;;;;;;;1999.90;999.90;;;19.50;99.90;;;;;;6650278;89;20726;-80
2023/04/23 10:17:17;;;;;;;1999.90;999.90;;;20.60;99.90;;;;;;6650726;88;20252;-81
2023/04/23 10:27:21;;;;;;;1999.90;999.90;;;19.50;99.90;;;;;;6650107;89;20546;-80
2023/04/23 10:37:21;;;;;;;1999.90;999.90;;;18.70;99.90;;;;;;6646790;89;20198;-78
2023/04/23 10:47:22;;;;;;;1999.90;999.90;;;18.50;99.90;;;;;;6642975;88;20215;-78
2023/04/23 10:57:23;;;;;;;1999.90;999.90;;;18.50;99.90;;;;;;6658207;88;20598;-78
2023/04/23 11:07:31;;;;;;;1999.90;999.90;;;18.50;99.90;;;;;;6646409;88;20166;-78
2023/04/23 11:17:31;;;;;;;1999.90;999.90;;;18.20;99.90;;;;;;6650925;88;20226;-79
2023/04/23 11:27:32;;;;;;;1999.90;999.90;;;17.90;99.90;;;;;;6650794;88;20158;-78
2023/04/23 11:37:37;;;;;;;1999.90;999.90;;;18.30;99.90;;;;;;6657696;88;20177;-79
2023/04/23 11:47:37;;;;;;;;;;;18.70;99.90;;;;;;6670583;88;20535;-79
2023/04/23 11:57:48;;;;;;;1999.90;999.90;;;19.00;99.80;;;;;;6655730;89;20653;-80
2023/04/23 12:07:50;;;;;;;1999.90;999.90;;;19.10;98.80;;;;;;6651817;89;20636;-80
2023/04/23 12:18:08;;;;;;;1999.90;999.90;;;19.80;97.80;;;;;;6649585;89;20187;-81
2023/04/23 12:28:08;;;;;;;1999.90;999.90;;;20.00;96.40;;;;;;6644078;89;20281;-80
2023/04/23 12:38:26;;;;;;;1999.90;999.90;;;20.10;96.60;;;;;;6638018;89;20236;-81
2023/04/23 12:48:26;;;;;;;1999.90;999.90;;;20.80;97.00;;;;;;6649175;89;20206;-80
2023/04/23 12:58:27;;;;;;;1999.90;999.90;;;19.80;97.00;;;;;;6641803;89;20209;-80
2023/04/23 13:08:27;;;;;;;1999.90;999.90;;;19.80;97.00;;;;;;6645694;89;20189;-80
2023/04/23 13:18:28;;;;;;;1999.90;999.90;;;19.70;96.90;;;;;;6647351;89;20235;-80
2023/04/23 13:28:29;;;;;;;1999.90;999.90;;;19.30;97.10;;;;;;6649830;88;20741;-81
2023/04/23 13:38:31;;;;;;;1999.90;999.90;;;18.90;97.70;;;;;;6630754;89;20206;-82
2023/04/23 13:48:32;;;;;;;1999.90;999.90;;;18.30;99.90;;;;;;6627870;89;21029;-79
2023/04/23 13:58:33;;;;;;;1999.90;999.90;;;17.30;99.90;;;;;;6642575;89;20222;-80
2023/04/23 14:08:35;;;;;;;1999.90;999.90;;;16.80;99.90;;;;;;6643071;89;20208;-80
2023/04/23 14:18:36;;;;;;;1999.90;999.90;;;16.90;99.90;;;;;;6642820;89;20282;-81
2023/04/23 14:28:44;;;;;;;1999.90;999.90;;;17.00;99.90;;;;;;6645966;89;21199;-80
2023/04/23 14:38:44;;;;;;;1999.90;999.90;;;17.20;99.90;;;;;;6634665;89;20206;-80
2023/04/23 14:58:48;;;;;;;1999.90;999.90;;;17.70;99.90;;;;;;6732740;88;20378;-80
2023/04/23 15:08:49;;;;;;;1999.90;999.90;;;17.50;99.90;;;;;;6731240;88;20225;-79
2023/04/23 15:18:49;;;;;;;1999.90;999.90;;;17.30;99.90;;;;;;6729198;88;20193;-79
2023/04/23 15:28:50;;;;;;;1999.90;999.90;;;17.50;99.90;;;;;;6728061;88;20209;-80
2023/04/23 15:38:51;;;;;;;1999.90;999.90;;;17.30;99.90;;;;;;6729586;88;20193;-80
2023/04/23 15:48:51;;;;;;;1999.90;999.90;;;17.10;99.90;;;;;;6731338;88;20197;-80
2023/04/23 15:58:52;;;;;;;1999.90;999.90;;;16.90;99.90;;;;;;6730894;88;20181;-80
2023/04/23 16:08:52;;;;;;;1999.90;999.90;;;16.70;99.90;;;;;;6731296;88;20694;-80
2023/04/23 16:18:53;;;;;;;1999.90;999.90;;;16.40;99.90;;;;;;6726852;88;20205;-80
2023/04/23 16:28:53;;;;;;;1999.90;999.90;;;14.30;99.90;;;;;;6718911;88;20217;-78
2023/04/23 16:38:54;;;;;;;1999.90;999.90;;;13.60;99.90;;;;;;6723086;88;20270;-79
2023/04/23 16:48:56;;;;;;;1999.90;999.90;;;13.40;99.90;;;;;;6722096;88;20217;-80
2023/04/23 16:58:57;;;;;;;1999.90;999.90;;;13.50;99.90;;;;;;6720442;88;20182;-80
2023/04/23 17:09:00;;;;;;;1999.90;999.90;;;13.80;99.90;;;;;;6699175;88;20351;-79
2023/04/23 17:19:00;;;;;;;1999.90;999.90;;;13.90;99.90;;;;;;6703707;88;20212;-79
2023/04/23 17:29:01;;;;;;;1999.90;999.90;;;13.90;99.90;;;;;;6708196;88;20194;-79
2023/04/23 17:39:01;;;;;;;1999.90;999.90;;;13.90;99.90;;;;;;6721298;88;20226;-79
2023/04/23 17:49:02;;;;;;;1999.90;999.90;;;13.90;99.90;;;;;;6720490;88;20207;-79
2023/04/23 17:59:02;;;;;;;1999.90;999.90;;;13.90;99.90;;;;;;6720680;88;20660;-80
2023/04/23 18:09:03;;;;;;;1999.90;999.90;;;14.00;99.90;;;;;;6722503;88;20306;-80
2023/04/23 18:19:04;;;;;;;1999.90;999.90;;;14.00;99.90;;;;;;6734521;88;20368;-79
2023/04/23 18:29:04;;;;;;;1999.90;999.90;;;13.90;99.90;;;;;;6722983;88;20210;-79
2023/04/23 18:39:06;;;;;;;1999.90;999.90;;;13.90;99.90;;;;;;6726501;88;20575;-79
2023/04/23 18:49:27;;;;;;;1999.90;999.90;;;13.90;99.90;;;;;;6723342;88;20688;-80
2023/04/23 18:59:31;;;;;;;1999.90;999.90;;;13.90;99.90;;;;;;6722853;88;20977;-81
2023/04/23 19:09:31;;;;;;;1999.90;999.90;;;13.80;99.90;;;;;;6719759;88;20239;-79
2023/04/23 19:19:34;;;;;;;1999.90;999.90;;;13.30;99.90;;;;;;6726627;88;20188;-80
2023/04/23 19:29:34;;;;;;;1999.90;999.90;;;13.20;99.90;;;;;;6725496;88;20560;-80
2023/04/23 19:39:35;;;;;;;1999.90;999.90;;;13.10;99.90;;;;;;6719654;88;20202;-80
2023/04/23 19:49:35;;;;;;;1999.90;999.90;;;13.20;99.90;;;;;;6728511;88;20218;-80
2023/04/23 19:59:36;;;;;;;1999.90;999.90;;;13.00;99.90;;;;;;6729459;88;20193;-80
2023/04/23 20:09:37;;;;;;;1999.90;999.90;;;13.20;99.90;;;;;;6722472;88;20197;-80
2023/04/23 20:19:38;;;;;;;1999.90;999.90;;;13.10;99.90;;;;;;6701844;88;20351;-79
2023/04/23 20:29:39;;;;;;;1999.90;999.90;;;13.10;99.90;;;;;;6704157;88;20248;-80
2023/04/23 20:39:40;;;;;;;1999.90;999.90;;;13.00;99.90;;;;;;6705944;88;20214;-79
2023/04/23 20:49:41;;;;;;;1999.90;999.90;;;13.00;99.90;;;;;;6713096;77;20193;-75
2023/04/23 20:59:42;;;;;;;1999.90;999.90;;;12.70;99.90;;;;;;6731930;88;20272;-76
2023/04/23 21:09:42;;;;;;;1999.90;999.90;;;12.70;99.90;;;;;;6736898;88;20264;-76
2023/04/23 21:19:43;;;;;;;1999.90;999.90;;;12.40;99.90;;;;;;6731472;88;20256;-76
2023/04/23 21:29:44;;;;;;;1999.90;999.90;;;12.20;99.90;;;;;;6733358;88;20214;-75
2023/04/23 21:39:45;;;;;;;1999.90;999.90;;;12.20;99.90;;;;;;6746703;88;20286;-75
2023/04/23 21:49:45;;;;;;;1999.90;999.90;;;12.10;99.90;;;;;;6739122;88;20330;-76
2023/04/23 21:59:46;;;;;;;1999.90;999.90;;;12.00;99.90;;;;;;6733883;88;20210;-76
2023/04/23 22:09:46;;;;;;;1999.90;999.90;;;11.90;99.90;;;;;;6734529;88;20200;-76
2023/04/23 22:19:47;;;;;;;1999.90;999.90;;;11.80;99.90;;;;;;6734132;88;20604;-76
2023/04/23 22:29:47;;;;;;;1999.90;999.90;;;11.80;99.90;;;;;;6732938;88;20555;-76
2023/04/23 22:39:48;;;;;;;1999.90;999.90;;;11.80;99.90;;;;;;6733225;88;20581;-76
2023/04/23 22:49:48;;;;;;;1999.90;999.90;;;11.90;99.90;;;;;;6737337;88;20296;-76
2023/04/23 22:59:49;;;;;;;1999.90;999.90;;;12.00;99.90;;;;;;6738604;88;20228;-77
2023/04/23 23:09:49;;;;;;;1999.90;999.90;;;12.00;99.90;;;;;;6739525;88;20229;-76
2023/04/23 23:19:50;;;;;;;1999.90;999.90;;;12.10;99.90;;;;;;6730978;88;20214;-77
2023/04/23 23:29:50;;;;;;;1999.90;999.90;;;11.90;99.90;;;;;;6733434;88;20235;-75
2023/04/23 23:39:51;;;;;;;1999.90;999.90;;;11.90;99.90;;;;;;6733647;88;20188;-75
2023/04/23 23:49:52;;;;;;;1999.90;999.90;;;11.90;99.90;;;;;;6732017;88;20254;-76
2023/04/23 23:59:52;;;;;;;1999.90;999.90;;;12.00;99.90;;;;;;6731522;88;20664;-76
